Station Historical Data
Daily Summary for February 2, 2017 Units:  Both    English   Metric
« Previous Day
Next Day »
Daily Weekly Monthly Yearly Custom
  High: Low: Average:
Temperature: 30.9 °F /  -0.6 °C 18.0 °F /  -7.8 °C 24.8 °F /  -4 °C
Dew Point: 26.1 °F /  -3.3 °C 8.8 °F /  -12.9 °C 15.9 °F /  -8.9 °C
Humidity: 86% 53% 69%
Wind Speed: 14.0mph /  22.5km/h - 5.8mph /  9.3km/h
Wind Gust: 24.0mph /  38.6km/h - -
Wind- - West
Pressure: 30.26 in /  1024.6 hPa 30.00 in /  1015.8 hPa -
Precipitation: 0.00 in /  0 mm    
Historical Graphs
 
 
Tabular Data for February 2, 2017
Time Temperature Dew Point Pressure Wind Wind Speed Wind Gust Humidity Rainfall Rate (Hourly)
00:04 30.9 °F /  -0.6 °C 25.8 °F /  -3.4 °C 30.00in /  1015.8hPa NW 7.0mph /  11.3km/h 10.0mph /  16.1km/h 81% 0.00in /  0mm
00:09 30.7 °F /  -0.7 °C 25.9 °F /  -3.4 °C 30.00in /  1015.8hPa WNW 3.0mph /  4.8km/h 8.0mph /  12.9km/h 82% 0.00in /  0mm
00:14 30.5 °F /  -0.8 °C 26.0 °F /  -3.3 °C 30.00in /  1015.8hPa West 5.0mph /  8km/h 11.0mph /  17.7km/h 83% 0.00in /  0mm
00:19 30.4 °F /  -0.9 °C 25.9 °F /  -3.4 °C 30.00in /  1015.8hPa West 4.0mph /  6.4km/h 8.0mph /  12.9km/h 83% 0.00in /  0mm
00:24 30.4 °F /  -0.9 °C 26.1 °F /  -3.3 °C 30.00in /  1015.8hPa West 4.0mph /  6.4km/h 8.0mph /  12.9km/h 84% 0.00in /  0mm
00:29 30.2 °F /  -1 °C 25.9 °F /  -3.4 °C 30.00in /  1015.8hPa WNW 3.0mph /  4.8km/h 7.0mph /  11.3km/h 84% 0.00in /  0mm
00:34 30.0 °F /  -1.1 °C 25.8 °F /  -3.4 °C 30.00in /  1015.8hPa NW 5.0mph /  8km/h 12.0mph /  19.3km/h 84% 0.00in /  0mm
00:39 29.9 °F /  -1.2 °C 25.9 °F /  -3.4 °C 30.00in /  1015.8hPa West 5.0mph /  8km/h 9.0mph /  14.5km/h 85% 0.00in /  0mm
00:44 29.8 °F /  -1.2 °C 25.8 °F /  -3.4 °C 30.00in /  1015.8hPa WSW 8.0mph /  12.9km/h 11.0mph /  17.7km/h 85% 0.00in /  0mm
00:49 29.6 °F /  -1.3 °C 25.6 °F /  -3.6 °C 30.00in /  1015.8hPa NNW 5.0mph /  8km/h 8.0mph /  12.9km/h 85% 0.00in /  0mm
00:54 29.7 °F /  -1.3 °C 25.7 °F /  -3.5 °C 30.00in /  1015.8hPa West 4.0mph /  6.4km/h 8.0mph /  12.9km/h 85% 0.00in /  0mm
00:59 29.7 °F /  -1.3 °C 25.7 °F /  -3.5 °C 30.00in /  1015.8hPa West 4.0mph /  6.4km/h 8.0mph /  12.9km/h 85% 0.00in /  0mm
01:04 29.6 °F /  -1.3 °C 25.6 °F /  -3.6 °C 30.00in /  1015.8hPa West 3.0mph /  4.8km/h 7.0mph /  11.3km/h 85% 0.00in /  0mm
01:09 29.6 °F /  -1.3 °C 25.9 °F /  -3.4 °C 30.00in /  1015.8hPa West 5.0mph /  8km/h 6.0mph /  9.7km/h 86% 0.00in /  0mm
01:14 29.7 °F /  -1.3 °C 25.7 °F /  -3.5 °C 30.00in /  1015.8hPa West 3.0mph /  4.8km/h 6.0mph /  9.7km/h 85% 0.00in /  0mm
01:19 29.8 °F /  -1.2 °C 25.8 °F /  -3.4 °C 30.00in /  1015.8hPa WNW 6.0mph /  9.7km/h 8.0mph /  12.9km/h 85% 0.00in /  0mm
01:24 29.8 °F /  -1.2 °C 25.8 °F /  -3.4 °C 30.00in /  1015.8hPa SW 5.0mph /  8km/h 8.0mph /  12.9km/h 85% 0.00in /  0mm
01:29 29.8 °F /  -1.2 °C 25.8 °F /  -3.4 °C 30.01in /  1016.1hPa West 3.0mph /  4.8km/h 8.0mph /  12.9km/h 85% 0.00in /  0mm
01:34 29.8 °F /  -1.2 °C 25.6 °F /  -3.6 °C 30.01in /  1016.1hPa SW 3.0mph /  4.8km/h 8.0mph /  12.9km/h 84% 0.00in /  0mm
01:39 29.6 °F /  -1.3 °C 25.4 °F /  -3.7 °C 30.01in /  1016.1hPa West 2.0mph /  3.2km/h 7.0mph /  11.3km/h 84% 0.00in /  0mm
01:44 29.6 °F /  -1.3 °C 25.4 °F /  -3.7 °C 30.02in /  1016.5hPa WSW 3.0mph /  4.8km/h 8.0mph /  12.9km/h 84% 0.00in /  0mm
01:49 29.5 °F /  -1.4 °C 25.3 °F /  -3.7 °C 30.02in /  1016.5hPa West 3.0mph /  4.8km/h 7.0mph /  11.3km/h 84% 0.00in /  0mm
01:54 29.5 °F /  -1.4 °C 25.3 °F /  -3.7 °C 30.03in /  1016.8hPa WNW 3.0mph /  4.8km/h 8.0mph /  12.9km/h 84% 0.00in /  0mm
01:59 29.5 °F /  -1.4 °C 25.3 °F /  -3.7 °C 30.03in /  1016.8hPa West 4.0mph /  6.4km/h 9.0mph /  14.5km/h 84% 0.00in /  0mm
02:04 29.4 °F /  -1.4 °C 25.2 °F /  -3.8 °C 30.03in /  1016.8hPa West 4.0mph /  6.4km/h 9.0mph /  14.5km/h 84% 0.00in /  0mm
02:09 29.3 °F /  -1.5 °C 25.1 °F /  -3.8 °C 30.03in /  1016.8hPa West 5.0mph /  8km/h 11.0mph /  17.7km/h 84% 0.00in /  0mm
02:14 29.3 °F /  -1.5 °C 25.1 °F /  -3.8 °C 30.03in /  1016.8hPa West 5.0mph /  8km/h 11.0mph /  17.7km/h 84% 0.00in /  0mm
02:19 29.1 °F /  -1.6 °C 24.9 °F /  -3.9 °C 30.03in /  1016.8hPa West 5.0mph /  8km/h 11.0mph /  17.7km/h 84% 0.00in /  0mm
02:24 28.9 °F /  -1.7 °C 24.7 °F /  -4.1 °C 30.03in /  1016.8hPa WSW 5.0mph /  8km/h 7.0mph /  11.3km/h 84% 0.00in /  0mm
02:29 29.0 °F /  -1.7 °C 24.8 °F /  -4 °C 30.03in /  1016.8hPa WSW 4.0mph /  6.4km/h 10.0mph /  16.1km/h 84% 0.00in /  0mm
02:34 29.0 °F /  -1.7 °C 24.8 °F /  -4 °C 30.03in /  1016.8hPa West 4.0mph /  6.4km/h 10.0mph /  16.1km/h 84% 0.00in /  0mm
02:39 29.0 °F /  -1.7 °C 24.8 °F /  -4 °C 30.03in /  1016.8hPa West 10.0mph /  16.1km/h 10.0mph /  16.1km/h 84% 0.00in /  0mm
02:44 29.1 °F /  -1.6 °C 24.9 °F /  -3.9 °C 30.03in /  1016.8hPa West 4.0mph /  6.4km/h 10.0mph /  16.1km/h 84% 0.00in /  0mm
02:49 29.1 °F /  -1.6 °C 24.9 °F /  -3.9 °C 30.03in /  1016.8hPa NW 4.0mph /  6.4km/h 8.0mph /  12.9km/h 84% 0.00in /  0mm
02:54 29.0 °F /  -1.7 °C 24.5 °F /  -4.2 °C 30.03in /  1016.8hPa WSW 4.0mph /  6.4km/h 7.0mph /  11.3km/h 83% 0.00in /  0mm
02:59 29.0 °F /  -1.7 °C 24.5 °F /  -4.2 °C 30.03in /  1016.8hPa West 5.0mph /  8km/h 9.0mph /  14.5km/h 83% 0.00in /  0mm
03:04 29.0 °F /  -1.7 °C 24.5 °F /  -4.2 °C 30.03in /  1016.8hPa West 5.0mph /  8km/h 11.0mph /  17.7km/h 83% 0.00in /  0mm
03:09 29.1 °F /  -1.6 °C 24.6 °F /  -4.1 °C 30.04in /  1017.2hPa West 5.0mph /  8km/h 11.0mph /  17.7km/h 83% 0.00in /  0mm
03:14 29.1 °F /  -1.6 °C 24.6 °F /  -4.1 °C 30.04in /  1017.2hPa West 6.0mph /  9.7km/h 13.0mph /  20.9km/h 83% 0.00in /  0mm
03:19 29.0 °F /  -1.7 °C 24.8 °F /  -4 °C 30.03in /  1016.8hPa WNW 6.0mph /  9.7km/h 13.0mph /  20.9km/h 84% 0.00in /  0mm
03:24 28.7 °F /  -1.8 °C 24.5 °F /  -4.2 °C 30.04in /  1017.2hPa NNW 7.0mph /  11.3km/h 7.0mph /  11.3km/h 84% 0.00in /  0mm
03:29 28.4 °F /  -2 °C 24.5 °F /  -4.2 °C 30.04in /  1017.2hPa NNW 1.0mph /  1.6km/h 8.0mph /  12.9km/h 85% 0.00in /  0mm
03:34 28.0 °F /  -2.2 °C 24.4 °F /  -4.2 °C 30.04in /  1017.2hPa NNW 4.0mph /  6.4km/h 6.0mph /  9.7km/h 86% 0.00in /  0mm
03:39 28.0 °F /  -2.2 °C 24.4 °F /  -4.2 °C 30.04in /  1017.2hPa NNW 3.0mph /  4.8km/h 6.0mph /  9.7km/h 86% 0.00in /  0mm
03:44 27.9 °F /  -2.3 °C 24.3 °F /  -4.3 °C 30.04in /  1017.2hPa NNW 3.0mph /  4.8km/h 8.0mph /  12.9km/h 86% 0.00in /  0mm
03:49 27.8 °F /  -2.3 °C 23.9 °F /  -4.5 °C 30.04in /  1017.2hPa NNW 4.0mph /  6.4km/h 7.0mph /  11.3km/h 85% 0.00in /  0mm
03:54 27.6 °F /  -2.4 °C 23.1 °F /  -4.9 °C 30.05in /  1017.5hPa NNW 5.0mph /  8km/h 11.0mph /  17.7km/h 83% 0.00in /  0mm
03:59 27.6 °F /  -2.4 °C 22.2 °F /  -5.4 °C 30.05in /  1017.5hPa NNW 3.0mph /  4.8km/h 10.0mph /  16.1km/h 80% 0.00in /  0mm
04:04 27.6 °F /  -2.4 °C 21.6 °F /  -5.8 °C 30.05in /  1017.5hPa NW 5.0mph /  8km/h 8.0mph /  12.9km/h 78% 0.00in /  0mm
04:09 27.5 °F /  -2.5 °C 20.9 °F /  -6.2 °C 30.05in /  1017.5hPa NW 4.0mph /  6.4km/h 8.0mph /  12.9km/h 76% 0.00in /  0mm
04:14 27.4 °F /  -2.6 °C 20.5 °F /  -6.4 °C 30.05in /  1017.5hPa NW 4.0mph /  6.4km/h 9.0mph /  14.5km/h 75% 0.00in /  0mm
04:19 27.4 °F /  -2.6 °C 20.5 °F /  -6.4 °C 30.05in /  1017.5hPa NW 3.0mph /  4.8km/h 9.0mph /  14.5km/h 75% 0.00in /  0mm
04:24 27.3 °F /  -2.6 °C 20.4 °F /  -6.4 °C 30.05in /  1017.5hPa WNW 2.0mph /  3.2km/h 5.0mph /  8km/h 75% 0.00in /  0mm
04:29 27.2 °F /  -2.7 °C 20.3 °F /  -6.5 °C 30.05in /  1017.5hPa NNW 4.0mph /  6.4km/h 7.0mph /  11.3km/h 75% 0.00in /  0mm
04:34 27.0 °F /  -2.8 °C 20.1 °F /  -6.6 °C 30.05in /  1017.5hPa NW 1.0mph /  1.6km/h 6.0mph /  9.7km/h 75% 0.00in /  0mm
04:39 26.9 °F /  -2.8 °C 19.7 °F /  -6.8 °C 30.06in /  1017.8hPa NW 4.0mph /  6.4km/h 8.0mph /  12.9km/h 74% 0.00in /  0mm
04:44 26.9 °F /  -2.8 °C 19.7 °F /  -6.8 °C 30.06in /  1017.8hPa NW 4.0mph /  6.4km/h 8.0mph /  12.9km/h 74% 0.00in /  0mm
04:49 26.9 °F /  -2.8 °C 19.7 °F /  -6.8 °C 30.06in /  1017.8hPa NW 3.0mph /  4.8km/h 7.0mph /  11.3km/h 74% 0.00in /  0mm
04:54 26.7 °F /  -2.9 °C 19.5 °F /  -6.9 °C 30.06in /  1017.8hPa NW 3.0mph /  4.8km/h 6.0mph /  9.7km/h 74% 0.00in /  0mm
04:59 26.6 °F /  -3 °C 19.4 °F /  -7 °C 30.06in /  1017.8hPa NW 2.0mph /  3.2km/h 5.0mph /  8km/h 74% 0.00in /  0mm
05:04 26.4 °F /  -3.1 °C 19.2 °F /  -7.1 °C 30.06in /  1017.8hPa NW 3.0mph /  4.8km/h 6.0mph /  9.7km/h 74% 0.00in /  0mm
05:09 26.3 °F /  -3.2 °C 19.1 °F /  -7.2 °C 30.06in /  1017.8hPa NW 2.0mph /  3.2km/h 3.0mph /  4.8km/h 74% 0.00in /  0mm
05:14 26.1 °F /  -3.3 °C 19.3 °F /  -7.1 °C 30.06in /  1017.8hPa NW 1.0mph /  1.6km/h 4.0mph /  6.4km/h 75% 0.00in /  0mm
05:19 26.0 °F /  -3.3 °C 19.5 °F /  -6.9 °C 30.06in /  1017.8hPa NW 1.0mph /  1.6km/h 3.0mph /  4.8km/h 76% 0.00in /  0mm
05:24 26.1 °F /  -3.3 °C 19.6 °F /  -6.9 °C 30.06in /  1017.8hPa NW 2.0mph /  3.2km/h 4.0mph /  6.4km/h 76% 0.00in /  0mm
05:29 26.0 °F /  -3.3 °C 19.8 °F /  -6.8 °C 30.06in /  1017.8hPa NW 2.0mph /  3.2km/h 4.0mph /  6.4km/h 77% 0.00in /  0mm
05:34 26.0 °F /  -3.3 °C 19.8 °F /  -6.8 °C 30.06in /  1017.8hPa West 4.0mph /  6.4km/h 7.0mph /  11.3km/h 77% 0.00in /  0mm
05:39 26.1 °F /  -3.3 °C 19.6 °F /  -6.9 °C 30.06in /  1017.8hPa NW 3.0mph /  4.8km/h 7.0mph /  11.3km/h 76% 0.00in /  0mm
05:44 26.0 °F /  -3.3 °C 19.5 °F /  -6.9 °C 30.06in /  1017.8hPa WNW 3.0mph /  4.8km/h 7.0mph /  11.3km/h 76% 0.00in /  0mm
05:49 25.9 °F /  -3.4 °C 19.1 °F /  -7.2 °C 30.07in /  1018.2hPa WNW 3.0mph /  4.8km/h 8.0mph /  12.9km/h 75% 0.00in /  0mm
05:54 25.7 °F /  -3.5 °C 18.9 °F /  -7.3 °C 30.06in /  1017.8hPa West 5.0mph /  8km/h 8.0mph /  12.9km/h 75% 0.00in /  0mm
05:59 25.6 °F /  -3.6 °C 18.5 °F /  -7.5 °C 30.06in /  1017.8hPa West 3.0mph /  4.8km/h 7.0mph /  11.3km/h 74% 0.00in /  0mm
06:04 25.4 °F /  -3.7 °C 18.3 °F /  -7.6 °C 30.06in /  1017.8hPa Calm   5.0mph /  8km/h 74% 0.00in /  0mm
06:09 25.3 °F /  -3.7 °C 18.2 °F /  -7.7 °C 30.07in /  1018.2hPa West 1.0mph /  1.6km/h 6.0mph /  9.7km/h 74% 0.00in /  0mm
06:14 25.1 °F /  -3.8 °C 18.0 °F /  -7.8 °C 30.07in /  1018.2hPa WNW 2.0mph /  3.2km/h 3.0mph /  4.8km/h 74% 0.00in /  0mm
06:19 25.0 °F /  -3.9 °C 18.2 °F /  -7.7 °C 30.07in /  1018.2hPa West 1.0mph /  1.6km/h 3.0mph /  4.8km/h 75% 0.00in /  0mm
06:24 25.0 °F /  -3.9 °C 18.2 °F /  -7.7 °C 30.07in /  1018.2hPa West 1.0mph /  1.6km/h 4.0mph /  6.4km/h 75% 0.00in /  0mm
06:29 25.2 °F /  -3.8 °C 18.4 °F /  -7.6 °C 30.07in /  1018.2hPa West 2.0mph /  3.2km/h 5.0mph /  8km/h 75% 0.00in /  0mm
06:34 25.3 °F /  -3.7 °C 18.5 °F /  -7.5 °C 30.08in /  1018.5hPa West 2.0mph /  3.2km/h 5.0mph /  8km/h 75% 0.00in /  0mm
06:39 25.4 °F /  -3.7 °C 18.9 °F /  -7.3 °C 30.08in /  1018.5hPa West 1.0mph /  1.6km/h 4.0mph /  6.4km/h 76% 0.00in /  0mm
06:44 25.6 °F /  -3.6 °C 19.4 °F /  -7 °C 30.08in /  1018.5hPa West 2.0mph /  3.2km/h 7.0mph /  11.3km/h 77% 0.00in /  0mm
06:49 25.6 °F /  -3.6 °C 19.4 °F /  -7 °C 30.08in /  1018.5hPa West 3.0mph /  4.8km/h 7.0mph /  11.3km/h 77% 0.00in /  0mm
06:54 25.7 °F /  -3.5 °C 18.9 °F /  -7.3 °C 30.08in /  1018.5hPa West 4.0mph /  6.4km/h 7.0mph /  11.3km/h 75% 0.00in /  0mm
06:59 25.7 °F /  -3.5 °C 18.6 °F /  -7.4 °C 30.09in /  1018.8hPa West 3.0mph /  4.8km/h 7.0mph /  11.3km/h 74% 0.00in /  0mm
07:04 25.8 °F /  -3.4 °C 18.7 °F /  -7.4 °C 30.09in /  1018.8hPa West 3.0mph /  4.8km/h 7.0mph /  11.3km/h 74% 0.00in /  0mm
07:09 25.8 °F /  -3.4 °C 18.7 °F /  -7.4 °C 30.09in /  1018.8hPa WNW 4.0mph /  6.4km/h 5.0mph /  8km/h 74% 0.00in /  0mm
07:14 25.8 °F /  -3.4 °C 18.7 °F /  -7.4 °C 30.10in /  1019.2hPa West 3.0mph /  4.8km/h 5.0mph /  8km/h 74% 0.00in /  0mm
07:19 25.8 °F /  -3.4 °C 18.7 °F /  -7.4 °C 30.09in /  1018.8hPa WNW 3.0mph /  4.8km/h 8.0mph /  12.9km/h 74% 0.00in /  0mm
07:24 25.7 °F /  -3.5 °C 18.6 °F /  -7.4 °C 30.10in /  1019.2hPa West 4.0mph /  6.4km/h 9.0mph /  14.5km/h 74% 0.00in /  0mm
07:29 25.6 °F /  -3.6 °C 18.5 °F /  -7.5 °C 30.10in /  1019.2hPa West 5.0mph /  8km/h 10.0mph /  16.1km/h 74% 0.00in /  0mm
07:34 25.4 °F /  -3.7 °C 18.3 °F /  -7.6 °C 30.10in /  1019.2hPa West 5.0mph /  8km/h 10.0mph /  16.1km/h 74% 0.00in /  0mm
07:39 25.4 °F /  -3.7 °C 18.6 °F /  -7.4 °C 30.10in /  1019.2hPa West 6.0mph /  9.7km/h 9.0mph /  14.5km/h 75% 0.00in /  0mm
07:44 25.4 °F /  -3.7 °C 18.3 °F /  -7.6 °C 30.10in /  1019.2hPa NW 5.0mph /  8km/h 9.0mph /  14.5km/h 74% 0.00in /  0mm
07:49 25.4 °F /  -3.7 °C 17.9 °F /  -7.8 °C 30.10in /  1019.2hPa WNW 5.0mph /  8km/h 10.0mph /  16.1km/h 73% 0.00in /  0mm
07:54 25.5 °F /  -3.6 °C 18.4 °F /  -7.6 °C 30.10in /  1019.2hPa West 5.0mph /  8km/h 10.0mph /  16.1km/h 74% 0.00in /  0mm
07:59 25.4 °F /  -3.7 °C 18.3 °F /  -7.6 °C 30.10in /  1019.2hPa West 5.0mph /  8km/h 9.0mph /  14.5km/h 74% 0.00in /  0mm
08:04 25.4 °F /  -3.7 °C 18.3 °F /  -7.6 °C 30.10in /  1019.2hPa West 4.0mph /  6.4km/h 9.0mph /  14.5km/h 74% 0.00in /  0mm
08:09 25.3 °F /  -3.7 °C 18.2 °F /  -7.7 °C 30.10in /  1019.2hPa West 2.0mph /  3.2km/h 8.0mph /  12.9km/h 74% 0.00in /  0mm
08:14 25.2 °F /  -3.8 °C 17.8 °F /  -7.9 °C 30.10in /  1019.2hPa NW 8.0mph /  12.9km/h 8.0mph /  12.9km/h 73% 0.00in /  0mm
08:19 25.1 °F /  -3.8 °C 17.7 °F /  -7.9 °C 30.10in /  1019.2hPa WNW 4.0mph /  6.4km/h 8.0mph /  12.9km/h 73% 0.00in /  0mm
08:24 24.9 °F /  -3.9 °C 17.8 °F /  -7.9 °C 30.10in /  1019.2hPa WNW 2.0mph /  3.2km/h 6.0mph /  9.7km/h 74% 0.00in /  0mm
08:29 24.8 °F /  -4 °C 17.7 °F /  -7.9 °C 30.11in /  1019.5hPa West 4.0mph /  6.4km/h 9.0mph /  14.5km/h 74% 0.00in /  0mm
08:34 25.0 °F /  -3.9 °C 18.2 °F /  -7.7 °C 30.11in /  1019.5hPa West 4.0mph /  6.4km/h 9.0mph /  14.5km/h 75% 0.00in /  0mm
08:39 25.3 °F /  -3.7 °C 18.5 °F /  -7.5 °C 30.11in /  1019.5hPa West 4.0mph /  6.4km/h 7.0mph /  11.3km/h 75% 0.00in /  0mm
08:44 25.7 °F /  -3.5 °C 18.9 °F /  -7.3 °C 30.11in /  1019.5hPa West 4.0mph /  6.4km/h 9.0mph /  14.5km/h 75% 0.00in /  0mm
08:49 25.7 °F /  -3.5 °C 18.9 °F /  -7.3 °C 30.11in /  1019.5hPa NW 5.0mph /  8km/h 12.0mph /  19.3km/h 75% 0.00in /  0mm
08:54 25.7 °F /  -3.5 °C 18.9 °F /  -7.3 °C 30.11in /  1019.5hPa West 8.0mph /  12.9km/h 10.0mph /  16.1km/h 75% 0.00in /  0mm
08:59 25.7 °F /  -3.5 °C 19.2 °F /  -7.1 °C 30.11in /  1019.5hPa West 6.0mph /  9.7km/h 10.0mph /  16.1km/h 76% 0.00in /  0mm
09:04 25.9 °F /  -3.4 °C 19.4 °F /  -7 °C 30.11in /  1019.5hPa West 5.0mph /  8km/h 9.0mph /  14.5km/h 76% 0.00in /  0mm
09:09 25.9 °F /  -3.4 °C 19.4 °F /  -7 °C 30.12in /  1019.9hPa WNW 6.0mph /  9.7km/h 11.0mph /  17.7km/h 76% 0.00in /  0mm
09:14 26.0 °F /  -3.3 °C 19.5 °F /  -6.9 °C 30.12in /  1019.9hPa WSW 4.0mph /  6.4km/h 13.0mph /  20.9km/h 76% 0.00in /  0mm
09:19 25.9 °F /  -3.4 °C 18.7 °F /  -7.4 °C 30.12in /  1019.9hPa West 7.0mph /  11.3km/h 14.0mph /  22.5km/h 74% 0.00in /  0mm
09:24 25.9 °F /  -3.4 °C 17.8 °F /  -7.9 °C 30.12in /  1019.9hPa WNW 8.0mph /  12.9km/h 12.0mph /  19.3km/h 71% 0.00in /  0mm
09:29 25.8 °F /  -3.4 °C 18.0 °F /  -7.8 °C 30.12in /  1019.9hPa WNW 8.0mph /  12.9km/h 11.0mph /  17.7km/h 72% 0.00in /  0mm
09:34 25.6 °F /  -3.6 °C 16.5 °F /  -8.6 °C 30.13in /  1020.2hPa WNW 6.0mph /  9.7km/h 14.0mph /  22.5km/h 68% 0.00in /  0mm
09:39 25.7 °F /  -3.5 °C 15.9 °F /  -8.9 °C 30.13in /  1020.2hPa WNW 7.0mph /  11.3km/h 18.0mph /  29km/h 66% 0.00in /  0mm
09:44 25.7 °F /  -3.5 °C 15.9 °F /  -8.9 °C 30.13in /  1020.2hPa WNW 8.0mph /  12.9km/h 18.0mph /  29km/h 66% 0.00in /  0mm
09:49 25.9 °F /  -3.4 °C 16.1 °F /  -8.8 °C 30.13in /  1020.2hPa WNW 6.0mph /  9.7km/h 14.0mph /  22.5km/h 66% 0.00in /  0mm
09:54 26.1 °F /  -3.3 °C 15.9 °F /  -8.9 °C 30.13in /  1020.2hPa WNW 5.0mph /  8km/h 13.0mph /  20.9km/h 65% 0.00in /  0mm
09:59 26.3 °F /  -3.2 °C 16.5 °F /  -8.6 °C 30.13in /  1020.2hPa WNW 6.0mph /  9.7km/h 14.0mph /  22.5km/h 66% 0.00in /  0mm
10:04 26.6 °F /  -3 °C 16.8 °F /  -8.4 °C 30.13in /  1020.2hPa West 5.0mph /  8km/h 12.0mph /  19.3km/h 66% 0.00in /  0mm
10:09 26.5 °F /  -3.1 °C 16.7 °F /  -8.5 °C 30.13in /  1020.2hPa West 4.0mph /  6.4km/h 12.0mph /  19.3km/h 66% 0.00in /  0mm
10:14 27.0 °F /  -2.8 °C 17.5 °F /  -8.1 °C 30.13in /  1020.2hPa West 4.0mph /  6.4km/h 11.0mph /  17.7km/h 67% 0.00in /  0mm
10:19 27.5 °F /  -2.5 °C 17.6 °F /  -8 °C 30.13in /  1020.2hPa West 5.0mph /  8km/h 12.0mph /  19.3km/h 66% 0.00in /  0mm
10:24 27.5 °F /  -2.5 °C 17.6 °F /  -8 °C 30.13in /  1020.2hPa WSW 8.0mph /  12.9km/h 12.0mph /  19.3km/h 66% 0.00in /  0mm
10:29 27.3 °F /  -2.6 °C 17.4 °F /  -8.1 °C 30.13in /  1020.2hPa West 4.0mph /  6.4km/h 14.0mph /  22.5km/h 66% 0.00in /  0mm
10:34 26.9 °F /  -2.8 °C 17.0 °F /  -8.3 °C 30.13in /  1020.2hPa WNW 9.0mph /  14.5km/h 12.0mph /  19.3km/h 66% 0.00in /  0mm
10:39 26.9 °F /  -2.8 °C 16.7 °F /  -8.5 °C 30.13in /  1020.2hPa West 7.0mph /  11.3km/h 15.0mph /  24.1km/h 65% 0.00in /  0mm
10:44 26.9 °F /  -2.8 °C 17.0 °F /  -8.3 °C 30.14in /  1020.5hPa West 7.0mph /  11.3km/h 15.0mph /  24.1km/h 66% 0.00in /  0mm
10:49 27.0 °F /  -2.8 °C 17.1 °F /  -8.3 °C 30.14in /  1020.5hPa West 7.0mph /  11.3km/h 13.0mph /  20.9km/h 66% 0.00in /  0mm
10:54 26.9 °F /  -2.8 °C 17.0 °F /  -8.3 °C 30.14in /  1020.5hPa West 7.0mph /  11.3km/h 14.0mph /  22.5km/h 66% 0.00in /  0mm
10:59 27.2 °F /  -2.7 °C 17.0 °F /  -8.3 °C 30.14in /  1020.5hPa West 8.0mph /  12.9km/h 14.0mph /  22.5km/h 65% 0.00in /  0mm
11:04 27.2 °F /  -2.7 °C 16.6 °F /  -8.6 °C 30.14in /  1020.5hPa West 7.0mph /  11.3km/h 14.0mph /  22.5km/h 64% 0.00in /  0mm
11:09 26.9 °F /  -2.8 °C 16.3 °F /  -8.7 °C 30.14in /  1020.5hPa WNW 8.0mph /  12.9km/h 16.0mph /  25.7km/h 64% 0.00in /  0mm
11:14 26.4 °F /  -3.1 °C 15.9 °F /  -8.9 °C 30.14in /  1020.5hPa WNW 9.0mph /  14.5km/h 19.0mph /  30.6km/h 64% 0.00in /  0mm
11:19 26.5 °F /  -3.1 °C 16.0 °F /  -8.9 °C 30.14in /  1020.5hPa WNW 8.0mph /  12.9km/h 16.0mph /  25.7km/h 64% 0.00in /  0mm
11:24 26.5 °F /  -3.1 °C 15.2 °F /  -9.3 °C 30.14in /  1020.5hPa NNW 4.0mph /  6.4km/h 15.0mph /  24.1km/h 62% 0.00in /  0mm
11:29 26.7 °F /  -2.9 °C 15.4 °F /  -9.2 °C 30.14in /  1020.5hPa West 13.0mph /  20.9km/h 17.0mph /  27.4km/h 62% 0.00in /  0mm
11:34 26.6 °F /  -3 °C 14.6 °F /  -9.7 °C 30.14in /  1020.5hPa West 13.0mph /  20.9km/h 18.0mph /  29km/h 60% 0.00in /  0mm
11:39 26.5 °F /  -3.1 °C 14.5 °F /  -9.7 °C 30.14in /  1020.5hPa SW 4.0mph /  6.4km/h 19.0mph /  30.6km/h 60% 0.00in /  0mm
11:44 26.4 °F /  -3.1 °C 14.4 °F /  -9.8 °C 30.14in /  1020.5hPa West 8.0mph /  12.9km/h 24.0mph /  38.6km/h 60% 0.00in /  0mm
11:49 27.3 °F /  -2.6 °C 14.8 °F /  -9.6 °C 30.13in /  1020.2hPa West 8.0mph /  12.9km/h 24.0mph /  38.6km/h 59% 0.00in /  0mm
11:54 27.6 °F /  -2.4 °C 14.7 °F /  -9.6 °C 30.13in /  1020.2hPa West 8.0mph /  12.9km/h 15.0mph /  24.1km/h 58% 0.00in /  0mm
11:59 28.7 °F /  -1.8 °C 15.0 °F /  -9.4 °C 30.13in /  1020.2hPa WNW 9.0mph /  14.5km/h 15.0mph /  24.1km/h 56% 0.00in /  0mm
12:04 28.7 °F /  -1.8 °C 14.1 °F /  -9.9 °C 30.13in /  1020.2hPa West 9.0mph /  14.5km/h 17.0mph /  27.4km/h 54% 0.00in /  0mm
12:09 28.0 °F /  -2.2 °C 13.5 °F /  -10.3 °C 30.14in /  1020.5hPa West 5.0mph /  8km/h 13.0mph /  20.9km/h 54% 0.00in /  0mm
12:14 28.4 °F /  -2 °C 14.7 °F /  -9.6 °C 30.14in /  1020.5hPa WNW 3.0mph /  4.8km/h 17.0mph /  27.4km/h 56% 0.00in /  0mm
12:19 28.2 °F /  -2.1 °C 13.7 °F /  -10.2 °C 30.13in /  1020.2hPa West 8.0mph /  12.9km/h 17.0mph /  27.4km/h 54% 0.00in /  0mm
12:24 27.4 °F /  -2.6 °C 13.3 °F /  -10.4 °C 30.13in /  1020.2hPa West 10.0mph /  16.1km/h 20.0mph /  32.2km/h 55% 0.00in /  0mm
12:29 26.8 °F /  -2.9 °C 13.6 °F /  -10.2 °C 30.13in /  1020.2hPa SW 5.0mph /  8km/h 18.0mph /  29km/h 57% 0.00in /  0mm
12:34 26.8 °F /  -2.9 °C 13.6 °F /  -10.2 °C 30.13in /  1020.2hPa WSW 9.0mph /  14.5km/h 16.0mph /  25.7km/h 57% 0.00in /  0mm
12:39 26.9 °F /  -2.8 °C 14.1 °F /  -9.9 °C 30.13in /  1020.2hPa WNW 9.0mph /  14.5km/h 15.0mph /  24.1km/h 58% 0.00in /  0mm
12:44 27.9 °F /  -2.3 °C 15.0 °F /  -9.4 °C 30.13in /  1020.2hPa NW 5.0mph /  8km/h 20.0mph /  32.2km/h 58% 0.00in /  0mm
12:49 28.3 °F /  -2.1 °C 15.0 °F /  -9.4 °C 30.13in /  1020.2hPa WNW 11.0mph /  17.7km/h 20.0mph /  32.2km/h 57% 0.00in /  0mm
12:54 27.8 °F /  -2.3 °C 14.9 °F /  -9.5 °C 30.13in /  1020.2hPa WNW 11.0mph /  17.7km/h 20.0mph /  32.2km/h 58% 0.00in /  0mm
12:59 27.9 °F /  -2.3 °C 14.6 °F /  -9.7 °C 30.13in /  1020.2hPa West 10.0mph /  16.1km/h 20.0mph /  32.2km/h 57% 0.00in /  0mm
13:04 28.0 °F /  -2.2 °C 14.7 °F /  -9.6 °C 30.12in /  1019.9hPa West 10.0mph /  16.1km/h 20.0mph /  32.2km/h 57% 0.00in /  0mm
13:09 27.4 °F /  -2.6 °C 13.7 °F /  -10.2 °C 30.13in /  1020.2hPa West 11.0mph /  17.7km/h 20.0mph /  32.2km/h 56% 0.00in /  0mm
13:14 26.7 °F /  -2.9 °C 13.5 °F /  -10.3 °C 30.13in /  1020.2hPa WSW 7.0mph /  11.3km/h 16.0mph /  25.7km/h 57% 0.00in /  0mm
13:19 26.7 °F /  -2.9 °C 13.5 °F /  -10.3 °C 30.13in /  1020.2hPa WNW 10.0mph /  16.1km/h 21.0mph /  33.8km/h 57% 0.00in /  0mm
13:24 26.4 °F /  -3.1 °C 13.6 °F /  -10.2 °C 30.13in /  1020.2hPa West 8.0mph /  12.9km/h 21.0mph /  33.8km/h 58% 0.00in /  0mm
13:29 26.5 °F /  -3.1 °C 14.5 °F /  -9.7 °C 30.13in /  1020.2hPa WNW 10.0mph /  16.1km/h 20.0mph /  32.2km/h 60% 0.00in /  0mm
13:34 26.2 °F /  -3.2 °C 13.8 °F /  -10.1 °C 30.13in /  1020.2hPa WNW 9.0mph /  14.5km/h 18.0mph /  29km/h 59% 0.00in /  0mm
13:39 25.9 °F /  -3.4 °C 13.9 °F /  -10.1 °C 30.13in /  1020.2hPa WSW 7.0mph /  11.3km/h 17.0mph /  27.4km/h 60% 0.00in /  0mm
13:44 25.8 °F /  -3.4 °C 13.4 °F /  -10.3 °C 30.13in /  1020.2hPa WNW 9.0mph /  14.5km/h 16.0mph /  25.7km/h 59% 0.00in /  0mm
13:49 25.6 °F /  -3.6 °C 12.9 °F /  -10.6 °C 30.13in /  1020.2hPa West 7.0mph /  11.3km/h 22.0mph /  35.4km/h 58% 0.00in /  0mm
13:54 26.3 °F /  -3.2 °C 13.1 °F /  -10.5 °C 30.13in /  1020.2hPa ENE 9.0mph /  14.5km/h 19.0mph /  30.6km/h 57% 0.00in /  0mm
13:59 27.1 °F /  -2.7 °C 13.9 °F /  -10.1 °C 30.13in /  1020.2hPa West 9.0mph /  14.5km/h 20.0mph /  32.2km/h 57% 0.00in /  0mm
14:04 27.6 °F /  -2.4 °C 13.9 °F /  -10.1 °C 30.13in /  1020.2hPa West 10.0mph /  16.1km/h 22.0mph /  35.4km/h 56% 0.00in /  0mm
14:09 27.7 °F /  -2.4 °C 13.6 °F /  -10.2 °C 30.13in /  1020.2hPa West 10.0mph /  16.1km/h 22.0mph /  35.4km/h 55% 0.00in /  0mm
14:14 28.1 °F /  -2.2 °C 13.6 °F /  -10.2 °C 30.13in /  1020.2hPa West 8.0mph /  12.9km/h 17.0mph /  27.4km/h 54% 0.00in /  0mm
14:19 27.0 °F /  -2.8 °C 13.0 °F /  -10.6 °C 30.14in /  1020.5hPa West 8.0mph /  12.9km/h 15.0mph /  24.1km/h 55% 0.00in /  0mm
14:24 27.4 °F /  -2.6 °C 13.3 °F /  -10.4 °C 30.14in /  1020.5hPa WNW 6.0mph /  9.7km/h 17.0mph /  27.4km/h 55% 0.00in /  0mm
14:29 28.1 °F /  -2.2 °C 13.6 °F /  -10.2 °C 30.14in /  1020.5hPa NW 7.0mph /  11.3km/h 18.0mph /  29km/h 54% 0.00in /  0mm
14:34 28.2 °F /  -2.1 °C 13.7 °F /  -10.2 °C 30.14in /  1020.5hPa WSW 3.0mph /  4.8km/h 16.0mph /  25.7km/h 54% 0.00in /  0mm
14:39 27.2 °F /  -2.7 °C 12.3 °F /  -10.9 °C 30.14in /  1020.5hPa West 13.0mph /  20.9km/h 19.0mph /  30.6km/h 53% 0.00in /  0mm
14:44 26.4 °F /  -3.1 °C 12.4 °F /  -10.9 °C 30.14in /  1020.5hPa WSW 11.0mph /  17.7km/h 18.0mph /  29km/h 55% 0.00in /  0mm
14:49 27.5 °F /  -2.5 °C 13.8 °F /  -10.1 °C 30.14in /  1020.5hPa West 12.0mph /  19.3km/h 19.0mph /  30.6km/h 56% 0.00in /  0mm
14:54 26.9 °F /  -2.8 °C 13.3 °F /  -10.4 °C 30.14in /  1020.5hPa WSW 6.0mph /  9.7km/h 18.0mph /  29km/h 56% 0.00in /  0mm
14:59 26.9 °F /  -2.8 °C 13.7 °F /  -10.2 °C 30.15in /  1020.9hPa West 8.0mph /  12.9km/h 18.0mph /  29km/h 57% 0.00in /  0mm
15:04 26.9 °F /  -2.8 °C 13.3 °F /  -10.4 °C 30.15in /  1020.9hPa West 9.0mph /  14.5km/h 20.0mph /  32.2km/h 56% 0.00in /  0mm
15:09 26.6 °F /  -3 °C 13.4 °F /  -10.3 °C 30.15in /  1020.9hPa West 8.0mph /  12.9km/h 20.0mph /  32.2km/h 57% 0.00in /  0mm
15:14 26.3 °F /  -3.2 °C 13.1 °F /  -10.5 °C 30.15in /  1020.9hPa NW 9.0mph /  14.5km/h 18.0mph /  29km/h 57% 0.00in /  0mm
15:19 26.4 °F /  -3.1 °C 14.0 °F /  -10 °C 30.15in /  1020.9hPa West 7.0mph /  11.3km/h 18.0mph /  29km/h 59% 0.00in /  0mm
15:24 26.1 °F /  -3.3 °C 13.7 °F /  -10.2 °C 30.16in /  1021.2hPa West 7.0mph /  11.3km/h 14.0mph /  22.5km/h 59% 0.00in /  0mm
15:29 26.2 °F /  -3.2 °C 13.8 °F /  -10.1 °C 30.16in /  1021.2hPa WNW 8.0mph /  12.9km/h 17.0mph /  27.4km/h 59% 0.00in /  0mm
15:34 26.1 °F /  -3.3 °C 13.7 °F /  -10.2 °C 30.17in /  1021.6hPa West 12.0mph /  19.3km/h 13.0mph /  20.9km/h 59% 0.00in /  0mm
15:39 25.7 °F /  -3.5 °C 13.7 °F /  -10.2 °C 30.17in /  1021.6hPa West 12.0mph /  19.3km/h 18.0mph /  29km/h 60% 0.00in /  0mm
15:44 25.6 °F /  -3.6 °C 14.0 °F /  -10 °C 30.17in /  1021.6hPa WNW 3.0mph /  4.8km/h 17.0mph /  27.4km/h 61% 0.00in /  0mm
15:49 25.4 °F /  -3.7 °C 13.4 °F /  -10.3 °C 30.17in /  1021.6hPa WSW 10.0mph /  16.1km/h 17.0mph /  27.4km/h 60% 0.00in /  0mm
15:54 25.3 °F /  -3.7 °C 13.7 °F /  -10.2 °C 30.17in /  1021.6hPa West 8.0mph /  12.9km/h 14.0mph /  22.5km/h 61% 0.00in /  0mm
15:59 25.1 °F /  -3.8 °C 13.5 °F /  -10.3 °C 30.18in /  1021.9hPa WSW 6.0mph /  9.7km/h 18.0mph /  29km/h 61% 0.00in /  0mm
16:04 25.1 °F /  -3.8 °C 13.9 °F /  -10.1 °C 30.18in /  1021.9hPa West 8.0mph /  12.9km/h 18.0mph /  29km/h 62% 0.00in /  0mm
16:09 25.0 °F /  -3.9 °C 13.8 °F /  -10.1 °C 30.18in /  1021.9hPa West 7.0mph /  11.3km/h 14.0mph /  22.5km/h 62% 0.00in /  0mm
16:14 24.8 °F /  -4 °C 13.6 °F /  -10.2 °C 30.18in /  1021.9hPa WNW 7.0mph /  11.3km/h 16.0mph /  25.7km/h 62% 0.00in /  0mm
16:19 24.4 °F /  -4.2 °C 13.2 °F /  -10.4 °C 30.19in /  1022.2hPa WNW 8.0mph /  12.9km/h 17.0mph /  27.4km/h 62% 0.00in /  0mm
16:24 24.3 °F /  -4.3 °C 13.5 °F /  -10.3 °C 30.19in /  1022.2hPa WNW 8.0mph /  12.9km/h 17.0mph /  27.4km/h 63% 0.00in /  0mm
16:29 24.1 °F /  -4.4 °C 13.3 °F /  -10.4 °C 30.19in /  1022.2hPa WNW 9.0mph /  14.5km/h 15.0mph /  24.1km/h 63% 0.00in /  0mm
16:34 24.0 °F /  -4.4 °C 12.9 °F /  -10.6 °C 30.19in /  1022.2hPa West 8.0mph /  12.9km/h 15.0mph /  24.1km/h 62% 0.00in /  0mm
16:39 24.0 °F /  -4.4 °C 12.9 °F /  -10.6 °C 30.19in /  1022.2hPa WSW 5.0mph /  8km/h 16.0mph /  25.7km/h 62% 0.00in /  0mm
16:44 23.9 °F /  -4.5 °C 13.1 °F /  -10.5 °C 30.20in /  1022.6hPa West 5.0mph /  8km/h 12.0mph /  19.3km/h 63% 0.00in /  0mm
16:49 23.7 °F /  -4.6 °C 12.9 °F /  -10.6 °C 30.20in /  1022.6hPa West 10.0mph /  16.1km/h 14.0mph /  22.5km/h 63% 0.00in /  0mm
16:54 23.4 °F /  -4.8 °C 13.0 °F /  -10.6 °C 30.20in /  1022.6hPa West 9.0mph /  14.5km/h 16.0mph /  25.7km/h 64% 0.00in /  0mm
16:59 23.2 °F /  -4.9 °C 12.5 °F /  -10.8 °C 30.21in /  1022.9hPa West 3.0mph /  4.8km/h 17.0mph /  27.4km/h 63% 0.00in /  0mm
17:04 22.9 °F /  -5.1 °C 12.2 °F /  -11 °C 30.21in /  1022.9hPa West 8.0mph /  12.9km/h 17.0mph /  27.4km/h 63% 0.00in /  0mm
17:09 22.7 °F /  -5.2 °C 12.0 °F /  -11.1 °C 30.21in /  1022.9hPa West 9.0mph /  14.5km/h 21.0mph /  33.8km/h 63% 0.00in /  0mm
17:14 22.3 °F /  -5.4 °C 11.2 °F /  -11.6 °C 30.21in /  1022.9hPa West 9.0mph /  14.5km/h 21.0mph /  33.8km/h 62% 0.00in /  0mm
17:19 22.1 °F /  -5.5 °C 11.4 °F /  -11.4 °C 30.22in /  1023.2hPa West 7.0mph /  11.3km/h 18.0mph /  29km/h 63% 0.00in /  0mm
17:24 22.0 °F /  -5.6 °C 11.0 °F /  -11.7 °C 30.22in /  1023.2hPa West 7.0mph /  11.3km/h 17.0mph /  27.4km/h 62% 0.00in /  0mm
17:29 21.8 °F /  -5.7 °C 10.4 °F /  -12 °C 30.22in /  1023.2hPa NNW 12.0mph /  19.3km/h 19.0mph /  30.6km/h 61% 0.00in /  0mm
17:34 21.7 °F /  -5.7 °C 10.3 °F /  -12.1 °C 30.22in /  1023.2hPa WSW 11.0mph /  17.7km/h 15.0mph /  24.1km/h 61% 0.00in /  0mm
17:39 21.5 °F /  -5.8 °C 10.1 °F /  -12.2 °C 30.22in /  1023.2hPa West 8.0mph /  12.9km/h 15.0mph /  24.1km/h 61% 0.00in /  0mm
17:44 21.3 °F /  -5.9 °C 10.3 °F /  -12.1 °C 30.23in /  1023.6hPa West 7.0mph /  11.3km/h 15.0mph /  24.1km/h 62% 0.00in /  0mm
17:49 21.1 °F /  -6.1 °C 10.5 °F /  -11.9 °C 30.23in /  1023.6hPa WSW 6.0mph /  9.7km/h 12.0mph /  19.3km/h 63% 0.00in /  0mm
17:54 21.0 °F /  -6.1 °C 10.7 °F /  -11.8 °C 30.23in /  1023.6hPa West 6.0mph /  9.7km/h 15.0mph /  24.1km/h 64% 0.00in /  0mm
17:59 20.9 °F /  -6.2 °C 10.3 °F /  -12.1 °C 30.23in /  1023.6hPa NW 7.0mph /  11.3km/h 13.0mph /  20.9km/h 63% 0.00in /  0mm
18:04 20.7 °F /  -6.3 °C 10.4 °F /  -12 °C 30.23in /  1023.6hPa West 9.0mph /  14.5km/h 17.0mph /  27.4km/h 64% 0.00in /  0mm
18:09 20.7 °F /  -6.3 °C 10.4 °F /  -12 °C 30.23in /  1023.6hPa West 9.0mph /  14.5km/h 18.0mph /  29km/h 64% 0.00in /  0mm
18:14 20.6 °F /  -6.3 °C 10.7 °F /  -11.8 °C 30.23in /  1023.6hPa West 8.0mph /  12.9km/h 18.0mph /  29km/h 65% 0.00in /  0mm
18:19 20.5 °F /  -6.4 °C 10.6 °F /  -11.9 °C 30.24in /  1023.9hPa West 7.0mph /  11.3km/h 15.0mph /  24.1km/h 65% 0.00in /  0mm
18:24 20.4 °F /  -6.4 °C 10.1 °F /  -12.2 °C 30.24in /  1023.9hPa WNW 8.0mph /  12.9km/h 16.0mph /  25.7km/h 64% 0.00in /  0mm
18:29 20.3 °F /  -6.5 °C 10.1 °F /  -12.2 °C 30.24in /  1023.9hPa West 8.0mph /  12.9km/h 16.0mph /  25.7km/h 64% 0.00in /  0mm
18:34 20.2 °F /  -6.6 °C 10.0 °F /  -12.2 °C 30.24in /  1023.9hPa West 8.0mph /  12.9km/h 15.0mph /  24.1km/h 64% 0.00in /  0mm
18:39 20.2 °F /  -6.6 °C 10.3 °F /  -12.1 °C 30.25in /  1024.3hPa WNW 9.0mph /  14.5km/h 15.0mph /  24.1km/h 65% 0.00in /  0mm
18:44 20.3 °F /  -6.5 °C 10.1 °F /  -12.2 °C 30.25in /  1024.3hPa WNW 8.0mph /  12.9km/h 15.0mph /  24.1km/h 64% 0.00in /  0mm
18:49 20.2 °F /  -6.6 °C 10.3 °F /  -12.1 °C 30.25in /  1024.3hPa WNW 10.0mph /  16.1km/h 15.0mph /  24.1km/h 65% 0.00in /  0mm
18:54 20.1 °F /  -6.6 °C 10.2 °F /  -12.1 °C 30.25in /  1024.3hPa WNW 3.0mph /  4.8km/h 12.0mph /  19.3km/h 65% 0.00in /  0mm
18:59 20.1 °F /  -6.6 °C 10.2 °F /  -12.1 °C 30.25in /  1024.3hPa WNW 8.0mph /  12.9km/h 14.0mph /  22.5km/h 65% 0.00in /  0mm
19:04 20.0 °F /  -6.7 °C 9.8 °F /  -12.3 °C 30.25in /  1024.3hPa WSW 14.0mph /  22.5km/h 14.0mph /  22.5km/h 64% 0.00in /  0mm
19:09 20.0 °F /  -6.7 °C 9.8 °F /  -12.3 °C 30.25in /  1024.3hPa WSW 6.0mph /  9.7km/h 15.0mph /  24.1km/h 64% 0.00in /  0mm
19:14 20.0 °F /  -6.7 °C 9.8 °F /  -12.3 °C 30.26in /  1024.6hPa West 6.0mph /  9.7km/h 15.0mph /  24.1km/h 64% 0.00in /  0mm
19:19 20.1 °F /  -6.6 °C 9.9 °F /  -12.3 °C 30.26in /  1024.6hPa West 6.0mph /  9.7km/h 18.0mph /  29km/h 64% 0.00in /  0mm
19:24 20.2 °F /  -6.6 °C 10.0 °F /  -12.2 °C 30.26in /  1024.6hPa West 7.0mph /  11.3km/h 18.0mph /  29km/h 64% 0.00in /  0mm
19:29 20.1 °F /  -6.6 °C 9.9 °F /  -12.3 °C 30.26in /  1024.6hPa West 8.0mph /  12.9km/h 14.0mph /  22.5km/h 64% 0.00in /  0mm
19:34 20.0 °F /  -6.7 °C 9.8 °F /  -12.3 °C 30.26in /  1024.6hPa WNW 7.0mph /  11.3km/h 14.0mph /  22.5km/h 64% 0.00in /  0mm
19:39 19.8 °F /  -6.8 °C 9.2 °F /  -12.7 °C 30.26in /  1024.6hPa West 7.0mph /  11.3km/h 13.0mph /  20.9km/h 63% 0.00in /  0mm
19:44 19.6 °F /  -6.9 °C 9.0 °F /  -12.8 °C 30.25in /  1024.3hPa WSW 5.0mph /  8km/h 13.0mph /  20.9km/h 63% 0.00in /  0mm
19:49 19.3 °F /  -7.1 °C 9.1 °F /  -12.7 °C 30.25in /  1024.3hPa SSW 5.0mph /  8km/h 11.0mph /  17.7km/h 64% 0.00in /  0mm
19:54 19.0 °F /  -7.2 °C 8.8 °F /  -12.9 °C 30.25in /  1024.3hPa WNW 7.0mph /  11.3km/h 10.0mph /  16.1km/h 64% 0.00in /  0mm
19:59 18.9 °F /  -7.3 °C 9.1 °F /  -12.7 °C 30.25in /  1024.3hPa WNW 5.0mph /  8km/h 9.0mph /  14.5km/h 65% 0.00in /  0mm
20:04 18.8 °F /  -7.3 °C 9.0 °F /  -12.8 °C 30.25in /  1024.3hPa West 3.0mph /  4.8km/h 10.0mph /  16.1km/h 65% 0.00in /  0mm
20:09 18.6 °F /  -7.4 °C 8.8 °F /  -12.9 °C 30.25in /  1024.3hPa West 1.0mph /  1.6km/h 10.0mph /  16.1km/h 65% 0.00in /  0mm
20:14 18.6 °F /  -7.4 °C 8.8 °F /  -12.9 °C 30.25in /  1024.3hPa West 5.0mph /  8km/h 9.0mph /  14.5km/h 65% 0.00in /  0mm
20:19 18.6 °F /  -7.4 °C 8.8 °F /  -12.9 °C 30.25in /  1024.3hPa West 5.0mph /  8km/h 10.0mph /  16.1km/h 65% 0.00in /  0mm
20:24 18.4 °F /  -7.6 °C 8.9 °F /  -12.8 °C 30.25in /  1024.3hPa West 5.0mph /  8km/h 10.0mph /  16.1km/h 66% 0.00in /  0mm
20:29 18.4 °F /  -7.6 °C 8.9 °F /  -12.8 °C 30.25in /  1024.3hPa West 5.0mph /  8km/h 11.0mph /  17.7km/h 66% 0.00in /  0mm
20:34 18.5 °F /  -7.5 °C 9.0 °F /  -12.8 °C 30.25in /  1024.3hPa West 5.0mph /  8km/h 11.0mph /  17.7km/h 66% 0.00in /  0mm
20:39 18.6 °F /  -7.4 °C 9.1 °F /  -12.7 °C 30.25in /  1024.3hPa West 5.0mph /  8km/h 13.0mph /  20.9km/h 66% 0.00in /  0mm
20:44 18.5 °F /  -7.5 °C 9.4 °F /  -12.6 °C 30.25in /  1024.3hPa West 1.0mph /  1.6km/h 12.0mph /  19.3km/h 67% 0.00in /  0mm
20:49 18.4 °F /  -7.6 °C 9.3 °F /  -12.6 °C 30.25in /  1024.3hPa West 3.0mph /  4.8km/h 11.0mph /  17.7km/h 67% 0.00in /  0mm
20:54 18.4 °F /  -7.6 °C 9.3 °F /  -12.6 °C 30.25in /  1024.3hPa West 6.0mph /  9.7km/h 11.0mph /  17.7km/h 67% 0.00in /  0mm
20:59 18.4 °F /  -7.6 °C 9.3 °F /  -12.6 °C 30.25in /  1024.3hPa NW 3.0mph /  4.8km/h 10.0mph /  16.1km/h 67% 0.00in /  0mm
21:04 18.5 °F /  -7.5 °C 9.4 °F /  -12.6 °C 30.25in /  1024.3hPa West 6.0mph /  9.7km/h 12.0mph /  19.3km/h 67% 0.00in /  0mm
21:09 18.4 °F /  -7.6 °C 9.3 °F /  -12.6 °C 30.25in /  1024.3hPa WNW 7.0mph /  11.3km/h 10.0mph /  16.1km/h 67% 0.00in /  0mm
21:14 18.4 °F /  -7.6 °C 9.3 °F /  -12.6 °C 30.25in /  1024.3hPa West 6.0mph /  9.7km/h 12.0mph /  19.3km/h 67% 0.00in /  0mm
21:19 18.4 °F /  -7.6 °C 9.3 °F /  -12.6 °C 30.25in /  1024.3hPa WNW 5.0mph /  8km/h 12.0mph /  19.3km/h 67% 0.00in /  0mm
21:24 18.4 °F /  -7.6 °C 9.6 °F /  -12.4 °C 30.25in /  1024.3hPa West 5.0mph /  8km/h 12.0mph /  19.3km/h 68% 0.00in /  0mm
21:29 18.4 °F /  -7.6 °C 9.6 °F /  -12.4 °C 30.25in /  1024.3hPa West 6.0mph /  9.7km/h 11.0mph /  17.7km/h 68% 0.00in /  0mm
21:34 18.4 °F /  -7.6 °C 9.6 °F /  -12.4 °C 30.25in /  1024.3hPa West 6.0mph /  9.7km/h 10.0mph /  16.1km/h 68% 0.00in /  0mm
21:39 18.3 °F /  -7.6 °C 9.5 °F /  -12.5 °C 30.25in /  1024.3hPa West 5.0mph /  8km/h 10.0mph /  16.1km/h 68% 0.00in /  0mm
21:44 18.3 °F /  -7.6 °C 9.5 °F /  -12.5 °C 30.25in /  1024.3hPa West 5.0mph /  8km/h 10.0mph /  16.1km/h 68% 0.00in /  0mm
21:49 18.4 °F /  -7.6 °C 9.6 °F /  -12.4 °C 30.25in /  1024.3hPa West 6.0mph /  9.7km/h 11.0mph /  17.7km/h 68% 0.00in /  0mm
21:54 18.5 °F /  -7.5 °C 9.7 °F /  -12.4 °C 30.25in /  1024.3hPa West 5.0mph /  8km/h 11.0mph /  17.7km/h 68% 0.00in /  0mm
21:59 18.5 °F /  -7.5 °C 9.4 °F /  -12.6 °C 30.25in /  1024.3hPa WNW 6.0mph /  9.7km/h 11.0mph /  17.7km/h 67% 0.00in /  0mm
22:04 18.6 °F /  -7.4 °C 9.5 °F /  -12.5 °C 30.25in /  1024.3hPa WNW 12.0mph /  19.3km/h 13.0mph /  20.9km/h 67% 0.00in /  0mm
22:09 18.5 °F /  -7.5 °C 9.4 °F /  -12.6 °C 30.25in /  1024.3hPa West 5.0mph /  8km/h 12.0mph /  19.3km/h 67% 0.00in /  0mm
22:14 18.5 °F /  -7.5 °C 9.4 °F /  -12.6 °C 30.25in /  1024.3hPa WNW 7.0mph /  11.3km/h 10.0mph /  16.1km/h 67% 0.00in /  0mm
22:19 18.5 °F /  -7.5 °C 9.4 °F /  -12.6 °C 30.25in /  1024.3hPa West 7.0mph /  11.3km/h 9.0mph /  14.5km/h 67% 0.00in /  0mm
22:24 18.4 °F /  -7.6 °C 9.3 °F /  -12.6 °C 30.25in /  1024.3hPa West 3.0mph /  4.8km/h 9.0mph /  14.5km/h 67% 0.00in /  0mm
22:29 18.1 °F /  -7.7 °C 9.3 °F /  -12.6 °C 30.25in /  1024.3hPa WSW 4.0mph /  6.4km/h 9.0mph /  14.5km/h 68% 0.00in /  0mm
22:34 18.0 °F /  -7.8 °C 8.9 °F /  -12.8 °C 30.25in /  1024.3hPa West 5.0mph /  8km/h 10.0mph /  16.1km/h 67% 0.00in /  0mm
22:39 18.3 °F /  -7.6 °C 9.2 °F /  -12.7 °C 30.24in /  1023.9hPa West 5.0mph /  8km/h 12.0mph /  19.3km/h 67% 0.00in /  0mm
22:44 18.3 °F /  -7.6 °C 9.2 °F /  -12.7 °C 30.24in /  1023.9hPa West 6.0mph /  9.7km/h 12.0mph /  19.3km/h 67% 0.00in /  0mm
22:49 18.3 °F /  -7.6 °C 9.2 °F /  -12.7 °C 30.24in /  1023.9hPa West 5.0mph /  8km/h 11.0mph /  17.7km/h 67% 0.00in /  0mm
22:54 18.4 °F /  -7.6 °C 9.3 °F /  -12.6 °C 30.24in /  1023.9hPa West 4.0mph /  6.4km/h 11.0mph /  17.7km/h 67% 0.00in /  0mm
22:59 18.6 °F /  -7.4 °C 9.5 °F /  -12.5 °C 30.24in /  1023.9hPa West 5.0mph /  8km/h 12.0mph /  19.3km/h 67% 0.00in /  0mm
23:04 18.8 °F /  -7.3 °C 9.3 °F /  -12.6 °C 30.24in /  1023.9hPa West 3.0mph /  4.8km/h 10.0mph /  16.1km/h 66% 0.00in /  0mm
23:09 18.8 °F /  -7.3 °C 9.3 °F /  -12.6 °C 30.24in /  1023.9hPa West 4.0mph /  6.4km/h 10.0mph /  16.1km/h 66% 0.00in /  0mm
23:14 18.7 °F /  -7.4 °C 9.2 °F /  -12.7 °C 30.24in /  1023.9hPa West 6.0mph /  9.7km/h 8.0mph /  12.9km/h 66% 0.00in /  0mm
23:19 18.8 °F /  -7.3 °C 9.3 °F /  -12.6 °C 30.24in /  1023.9hPa West 9.0mph /  14.5km/h 10.0mph /  16.1km/h 66% 0.00in /  0mm
23:24 18.9 °F /  -7.3 °C 9.4 °F /  -12.6 °C 30.24in /  1023.9hPa West 6.0mph /  9.7km/h 12.0mph /  19.3km/h 66% 0.00in /  0mm
23:29 19.0 °F /  -7.2 °C 9.5 °F /  -12.5 °C 30.24in /  1023.9hPa West 7.0mph /  11.3km/h 8.0mph /  12.9km/h 66% 0.00in /  0mm
23:34 19.1 °F /  -7.2 °C 9.3 °F /  -12.6 °C 30.23in /  1023.6hPa West 7.0mph /  11.3km/h 12.0mph /  19.3km/h 65% 0.00in /  0mm
23:39 19.1 °F /  -7.2 °C 9.3 °F /  -12.6 °C 30.23in /  1023.6hPa West 6.0mph /  9.7km/h 13.0mph /  20.9km/h 65% 0.00in /  0mm
23:44 19.1 °F /  -7.2 °C 8.9 °F /  -12.8 °C 30.23in /  1023.6hPa WNW 6.0mph /  9.7km/h 13.0mph /  20.9km/h 64% 0.00in /  0mm
23:49 19.0 °F /  -7.2 °C 8.8 °F /  -12.9 °C 30.23in /  1023.6hPa West 6.0mph /  9.7km/h 14.0mph /  22.5km/h 64% 0.00in /  0mm
23:54 18.9 °F /  -7.3 °C 9.1 °F /  -12.7 °C 30.23in /  1023.6hPa West 6.0mph /  9.7km/h 14.0mph /  22.5km/h 65% 0.00in /  0mm
23:59 18.9 °F /  -7.3 °C 9.1 °F /  -12.7 °C 30.23in /  1023.6hPa WSW 3.0mph /  4.8km/h 15.0mph /  24.1km/h 65% 0.00in /  0mm
Buffalo, New York, USA
Compliments of Weather Underground - 2.5 mb